sensor_id;sensor_type;location;lat;lon;timestamp;temperature;humidity
40059;SHT31;25763;49.972;8.568;2024-03-07T00:02:06;6.16;78.75
40059;SHT31;25763;49.972;8.568;2024-03-07T00:04:52;6.22;78.76
40059;SHT31;25763;49.972;8.568;2024-03-07T00:07:38;6.15;78.70
40059;SHT31;25763;49.972;8.568;2024-03-07T00:10:24;6.15;78.74
40059;SHT31;25763;49.972;8.568;2024-03-07T00:13:10;6.15;78.84
40059;SHT31;25763;49.972;8.568;2024-03-07T00:15:55;6.13;78.79
40059;SHT31;25763;49.972;8.568;2024-03-07T00:18:41;6.15;78.77
40059;SHT31;25763;49.972;8.568;2024-03-07T00:21:26;6.09;78.80
40059;SHT31;25763;49.972;8.568;2024-03-07T00:24:12;6.09;78.80
40059;SHT31;25763;49.972;8.568;2024-03-07T00:26:59;5.98;78.86
40059;SHT31;25763;49.972;8.568;2024-03-07T00:29:45;5.94;79.05
40059;SHT31;25763;49.972;8.568;2024-03-07T00:32:38;5.91;79.17
40059;SHT31;25763;49.972;8.568;2024-03-07T00:35:24;5.87;79.24
40059;SHT31;25763;49.972;8.568;2024-03-07T00:38:10;5.85;79.29
40059;SHT31;25763;49.972;8.568;2024-03-07T00:40:56;5.82;79.18
40059;SHT31;25763;49.972;8.568;2024-03-07T00:43:41;5.82;79.21
40059;SHT31;25763;49.972;8.568;2024-03-07T00:46:27;5.82;79.26
40059;SHT31;25763;49.972;8.568;2024-03-07T00:49:12;5.66;79.42
40059;SHT31;25763;49.972;8.568;2024-03-07T00:51:58;5.57;79.64
40059;SHT31;25763;49.972;8.568;2024-03-07T00:54:45;5.62;79.53
40059;SHT31;25763;49.972;8.568;2024-03-07T00:57:30;5.62;79.52
40059;SHT31;25763;49.972;8.568;2024-03-07T01:00:16;5.57;79.65
40059;SHT31;25763;49.972;8.568;2024-03-07T01:03:05;5.51;79.63
40059;SHT31;25763;49.972;8.568;2024-03-07T01:05:51;5.44;79.94
40059;SHT31;25763;49.972;8.568;2024-03-07T01:08:37;5.38;80.35
40059;SHT31;25763;49.972;8.568;2024-03-07T01:11:23;5.28;80.72
40059;SHT31;25763;49.972;8.568;2024-03-07T01:14:09;5.28;80.73
40059;SHT31;25763;49.972;8.568;2024-03-07T01:16:54;5.19;80.92
40059;SHT31;25763;49.972;8.568;2024-03-07T01:19:40;5.11;80.91
40059;SHT31;25763;49.972;8.568;2024-03-07T01:22:26;5.07;81.17
40059;SHT31;25763;49.972;8.568;2024-03-07T01:25:11;5.03;81.29
40059;SHT31;25763;49.972;8.568;2024-03-07T01:28:00;5.01;81.32
40059;SHT31;25763;49.972;8.568;2024-03-07T01:30:46;5.00;81.48
40059;SHT31;25763;49.972;8.568;2024-03-07T01:33:32;5.00;81.60
40059;SHT31;25763;49.972;8.568;2024-03-07T01:36:18;5.03;81.51
40059;SHT31;25763;49.972;8.568;2024-03-07T01:39:04;5.04;81.43
40059;SHT31;25763;49.972;8.568;2024-03-07T01:41:49;4.97;81.55
40059;SHT31;25763;49.972;8.568;2024-03-07T01:44:35;4.95;81.63
40059;SHT31;25763;49.972;8.568;2024-03-07T01:47:21;5.01;81.39
40059;SHT31;25763;49.972;8.568;2024-03-07T01:50:07;4.91;81.55
40059;SHT31;25763;49.972;8.568;2024-03-07T01:52:53;4.88;81.54
40059;SHT31;25763;49.972;8.568;2024-03-07T01:55:41;4.88;81.57
40059;SHT31;25763;49.972;8.568;2024-03-07T01:58:27;4.90;81.49
40059;SHT31;25763;49.972;8.568;2024-03-07T02:01:14;4.86;81.53
40059;SHT31;25763;49.972;8.568;2024-03-07T02:04:00;4.95;81.17
40059;SHT31;25763;49.972;8.568;2024-03-07T02:06:46;4.90;81.06
40059;SHT31;25763;49.972;8.568;2024-03-07T02:09:32;4.88;81.01
40059;SHT31;25763;49.972;8.568;2024-03-07T02:12:17;4.81;81.08
40059;SHT31;25763;49.972;8.568;2024-03-07T02:15:03;4.86;80.93
40059;SHT31;25763;49.972;8.568;2024-03-07T02:17:49;4.87;80.81
40059;SHT31;25763;49.972;8.568;2024-03-07T02:20:35;4.84;80.75
40059;SHT31;25763;49.972;8.568;2024-03-07T02:23:21;4.79;80.69
40059;SHT31;25763;49.972;8.568;2024-03-07T02:26:06;4.75;80.94
40059;SHT31;25763;49.972;8.568;2024-03-07T02:28:53;4.75;81.35
40059;SHT31;25763;49.972;8.568;2024-03-07T02:31:39;4.76;81.11
40059;SHT31;25763;49.972;8.568;2024-03-07T02:34:27;4.73;81.23
40059;SHT31;25763;49.972;8.568;2024-03-07T02:37:12;4.70;81.26
40059;SHT31;25763;49.972;8.568;2024-03-07T02:39:59;4.62;81.72
40059;SHT31;25763;49.972;8.568;2024-03-07T02:42:44;4.62;82.08
40059;SHT31;25763;49.972;8.568;2024-03-07T02:45:30;4.63;81.95
40059;SHT31;25763;49.972;8.568;2024-03-07T02:48:16;4.59;82.08
40059;SHT31;25763;49.972;8.568;2024-03-07T02:51:04;4.55;82.08
40059;SHT31;25763;49.972;8.568;2024-03-07T02:53:51;4.51;82.26
40059;SHT31;25763;49.972;8.568;2024-03-07T02:56:36;4.44;82.38
40059;SHT31;25763;49.972;8.568;2024-03-07T02:59:22;4.46;82.33
40059;SHT31;25763;49.972;8.568;2024-03-07T03:02:08;4.48;82.20
40059;SHT31;25763;49.972;8.568;2024-03-07T03:04:53;4.53;81.93
40059;SHT31;25763;49.972;8.568;2024-03-07T03:07:40;4.55;81.69
40059;SHT31;25763;49.972;8.568;2024-03-07T03:10:26;4.49;81.67
40059;SHT31;25763;49.972;8.568;2024-03-07T03:13:14;4.44;81.78
40059;SHT31;25763;49.972;8.568;2024-03-07T03:16:01;4.45;81.74
40059;SHT31;25763;49.972;8.568;2024-03-07T03:18:50;4.49;81.61
40059;SHT31;25763;49.972;8.568;2024-03-07T03:21:36;4.49;81.53
40059;SHT31;25763;49.972;8.568;2024-03-07T03:24:22;4.48;81.44
40059;SHT31;25763;49.972;8.568;2024-03-07T03:27:08;4.45;81.33
40059;SHT31;25763;49.972;8.568;2024-03-07T03:29:53;4.44;81.36
40059;SHT31;25763;49.972;8.568;2024-03-07T03:32:40;4.39;81.40
40059;SHT31;25763;49.972;8.568;2024-03-07T03:35:25;4.32;81.59
40059;SHT31;25763;49.972;8.568;2024-03-07T03:38:11;4.34;81.56
40059;SHT31;25763;49.972;8.568;2024-03-07T03:40:57;4.35;81.52
40059;SHT31;25763;49.972;8.568;2024-03-07T03:43:43;4.32;81.51
40059;SHT31;25763;49.972;8.568;2024-03-07T03:46:28;4.29;81.51
40059;SHT31;25763;49.972;8.568;2024-03-07T03:49:14;4.22;81.55
40059;SHT31;25763;49.972;8.568;2024-03-07T03:51:59;4.18;81.61
40059;SHT31;25763;49.972;8.568;2024-03-07T03:54:45;4.11;81.74
40059;SHT31;25763;49.972;8.568;2024-03-07T03:57:32;3.96;81.95
40059;SHT31;25763;49.972;8.568;2024-03-07T04:00:18;3.92;82.14
40059;SHT31;25763;49.972;8.568;2024-03-07T04:03:04;3.99;81.99
40059;SHT31;25763;49.972;8.568;2024-03-07T04:05:49;3.89;81.80
40059;SHT31;25763;49.972;8.568;2024-03-07T04:08:35;3.82;82.15
40059;SHT31;25763;49.972;8.568;2024-03-07T04:11:22;3.86;82.02
40059;SHT31;25763;49.972;8.568;2024-03-07T04:14:08;3.78;82.18
40059;SHT31;25763;49.972;8.568;2024-03-07T04:16:53;3.82;82.06
40059;SHT31;25763;49.972;8.568;2024-03-07T04:19:42;3.65;81.97
40059;SHT31;25763;49.972;8.568;2024-03-07T04:22:28;3.65;82.14
40059;SHT31;25763;49.972;8.568;2024-03-07T04:25:14;3.57;82.08
40059;SHT31;25763;49.972;8.568;2024-03-07T04:28:00;3.47;82.12
40059;SHT31;25763;49.972;8.568;2024-03-07T04:30:46;3.39;82.30
40059;SHT31;25763;49.972;8.568;2024-03-07T04:33:34;3.44;82.22
40059;SHT31;25763;49.972;8.568;2024-03-07T04:36:20;3.47;82.08
40059;SHT31;25763;49.972;8.568;2024-03-07T04:39:06;3.46;81.93
40059;SHT31;25763;49.972;8.568;2024-03-07T04:42:09;3.36;82.06
40059;SHT31;25763;49.972;8.568;2024-03-07T04:44:55;3.34;82.41
40059;SHT31;25763;49.972;8.568;2024-03-07T04:47:42;3.31;82.41
40059;SHT31;25763;49.972;8.568;2024-03-07T04:50:28;3.39;82.21
40059;SHT31;25763;49.972;8.568;2024-03-07T04:53:14;3.36;82.12
40059;SHT31;25763;49.972;8.568;2024-03-07T04:55:59;3.39;82.08
40059;SHT31;25763;49.972;8.568;2024-03-07T04:58:45;3.40;82.08
40059;SHT31;25763;49.972;8.568;2024-03-07T05:01:31;3.37;82.06
40059;SHT31;25763;49.972;8.568;2024-03-07T05:04:17;3.23;82.22
40059;SHT31;25763;49.972;8.568;2024-03-07T05:07:03;3.22;82.41
40059;SHT31;25763;49.972;8.568;2024-03-07T05:09:49;3.28;82.42
40059;SHT31;25763;49.972;8.568;2024-03-07T05:12:35;3.33;82.19
40059;SHT31;25763;49.972;8.568;2024-03-07T05:15:22;3.34;81.90
40059;SHT31;25763;49.972;8.568;2024-03-07T05:18:11;3.34;81.80
40059;SHT31;25763;49.972;8.568;2024-03-07T05:20:57;3.27;81.74
40059;SHT31;25763;49.972;8.568;2024-03-07T05:24:04;3.24;81.73
40059;SHT31;25763;49.972;8.568;2024-03-07T05:26:50;3.20;81.74
40059;SHT31;25763;49.972;8.568;2024-03-07T05:29:38;3.17;81.74
40059;SHT31;25763;49.972;8.568;2024-03-07T05:32:25;3.13;81.91
40059;SHT31;25763;49.972;8.568;2024-03-07T05:35:11;3.15;82.02
40059;SHT31;25763;49.972;8.568;2024-03-07T05:37:57;3.13;81.97
40059;SHT31;25763;49.972;8.568;2024-03-07T05:40:43;3.09;81.92
40059;SHT31;25763;49.972;8.568;2024-03-07T05:43:29;3.07;82.00
40059;SHT31;25763;49.972;8.568;2024-03-07T05:46:16;3.06;82.06
40059;SHT31;25763;49.972;8.568;2024-03-07T05:49:02;3.03;82.02
40059;SHT31;25763;49.972;8.568;2024-03-07T05:51:48;2.99;82.12
40059;SHT31;25763;49.972;8.568;2024-03-07T05:54:34;3.02;82.13
40059;SHT31;25763;49.972;8.568;2024-03-07T05:57:20;3.00;82.08
40059;SHT31;25763;49.972;8.568;2024-03-07T06:00:06;3.00;82.09
40059;SHT31;25763;49.972;8.568;2024-03-07T06:02:55;2.93;82.27
40059;SHT31;25763;49.972;8.568;2024-03-07T06:05:41;2.85;82.47
40059;SHT31;25763;49.972;8.568;2024-03-07T06:08:28;2.84;82.75
40059;SHT31;25763;49.972;8.568;2024-03-07T06:11:13;2.93;82.66
40059;SHT31;25763;49.972;8.568;2024-03-07T06:14:06;3.00;82.48
40059;SHT31;25763;49.972;8.568;2024-03-07T06:16:52;3.00;82.26
40059;SHT31;25763;49.972;8.568;2024-03-07T06:19:38;2.92;82.29
40059;SHT31;25763;49.972;8.568;2024-03-07T06:22:23;2.88;82.42
40059;SHT31;25763;49.972;8.568;2024-03-07T06:25:09;2.98;82.33
40059;SHT31;25763;49.972;8.568;2024-03-07T06:28:04;2.99;82.30
40059;SHT31;25763;49.972;8.568;2024-03-07T06:30:56;3.05;82.22
40059;SHT31;25763;49.972;8.568;2024-03-07T06:33:41;3.02;82.32
40059;SHT31;25763;49.972;8.568;2024-03-07T06:36:28;2.96;82.27
40059;SHT31;25763;49.972;8.568;2024-03-07T06:39:13;2.92;82.52
40059;SHT31;25763;49.972;8.568;2024-03-07T06:41:59;2.84;82.90
40059;SHT31;25763;49.972;8.568;2024-03-07T06:44:45;2.80;83.18
40059;SHT31;25763;49.972;8.568;2024-03-07T06:47:31;2.85;83.18
40059;SHT31;25763;49.972;8.568;2024-03-07T06:50:17;2.96;83.08
40059;SHT31;25763;49.972;8.568;2024-03-07T06:53:05;2.98;82.89
40059;SHT31;25763;49.972;8.568;2024-03-07T06:55:54;3.24;83.00
40059;SHT31;25763;49.972;8.568;2024-03-07T06:58:40;3.50;82.62
40059;SHT31;25763;49.972;8.568;2024-03-07T07:01:27;3.59;82.07
40059;SHT31;25763;49.972;8.568;2024-03-07T07:04:14;3.57;81.60
40059;SHT31;25763;49.972;8.568;2024-03-07T07:07:00;3.59;81.59
40059;SHT31;25763;49.972;8.568;2024-03-07T07:09:46;3.54;81.57
40059;SHT31;25763;49.972;8.568;2024-03-07T07:12:32;3.52;81.64
40059;SHT31;25763;49.972;8.568;2024-03-07T07:15:18;3.50;81.74
40059;SHT31;25763;49.972;8.568;2024-03-07T07:18:04;3.64;81.69
40059;SHT31;25763;49.972;8.568;2024-03-07T07:20:49;3.51;81.43
40059;SHT31;25763;49.972;8.568;2024-03-07T07:23:37;3.55;81.13
40059;SHT31;25763;49.972;8.568;2024-03-07T07:26:23;3.54;81.14
40059;SHT31;25763;49.972;8.568;2024-03-07T07:29:09;3.57;81.26
40059;SHT31;25763;49.972;8.568;2024-03-07T07:31:55;3.71;81.18
40059;SHT31;25763;49.972;8.568;2024-03-07T07:34:41;3.79;80.69
40059;SHT31;25763;49.972;8.568;2024-03-07T07:37:28;3.78;80.41
40059;SHT31;25763;49.972;8.568;2024-03-07T07:40:17;3.78;80.34
40059;SHT31;25763;49.972;8.568;2024-03-07T07:43:07;3.90;80.34
40059;SHT31;25763;49.972;8.568;2024-03-07T07:45:57;4.13;79.99
40059;SHT31;25763;49.972;8.568;2024-03-07T07:48:42;4.38;80.05
40059;SHT31;25763;49.972;8.568;2024-03-07T07:51:28;4.44;79.17
40059;SHT31;25763;49.972;8.568;2024-03-07T07:54:14;4.49;78.46
40059;SHT31;25763;49.972;8.568;2024-03-07T07:57:00;4.62;78.52
40059;SHT31;25763;49.972;8.568;2024-03-07T07:59:46;4.76;77.71
40059;SHT31;25763;49.972;8.568;2024-03-07T08:02:31;5.25;77.39
40059;SHT31;25763;49.972;8.568;2024-03-07T08:05:21;5.51;76.02
40059;SHT31;25763;49.972;8.568;2024-03-07T08:08:09;5.44;75.89
40059;SHT31;25763;49.972;8.568;2024-03-07T08:10:56;5.54;74.85
40059;SHT31;25763;49.972;8.568;2024-03-07T08:13:42;5.56;75.25
40059;SHT31;25763;49.972;8.568;2024-03-07T08:16:28;5.54;74.42
40059;SHT31;25763;49.972;8.568;2024-03-07T08:19:13;5.63;74.42
40059;SHT31;25763;49.972;8.568;2024-03-07T08:21:59;5.94;73.09
40059;SHT31;25763;49.972;8.568;2024-03-07T08:24:45;6.12;72.86
40059;SHT31;25763;49.972;8.568;2024-03-07T08:27:31;6.54;72.16
40059;SHT31;25763;49.972;8.568;2024-03-07T08:30:16;6.47;71.58
40059;SHT31;25763;49.972;8.568;2024-03-07T08:33:02;6.47;71.02
40059;SHT31;25763;49.972;8.568;2024-03-07T08:35:50;6.52;70.00
40059;SHT31;25763;49.972;8.568;2024-03-07T08:38:38;6.47;69.65
40059;SHT31;25763;49.972;8.568;2024-03-07T08:41:24;7.00;68.46
40059;SHT31;25763;49.972;8.568;2024-03-07T08:44:10;7.06;66.89
40059;SHT31;25763;49.972;8.568;2024-03-07T08:46:56;7.09;66.07
40059;SHT31;25763;49.972;8.568;2024-03-07T08:49:41;6.89;65.92
40059;SHT31;25763;49.972;8.568;2024-03-07T08:52:27;6.42;66.43
40059;SHT31;25763;49.972;8.568;2024-03-07T08:55:19;6.67;67.32
40059;SHT31;25763;49.972;8.568;2024-03-07T08:58:05;6.65;66.61
40059;SHT31;25763;49.972;8.568;2024-03-07T09:00:51;6.68;66.77
40059;SHT31;25763;49.972;8.568;2024-03-07T09:03:37;6.50;66.19
40059;SHT31;25763;49.972;8.568;2024-03-07T09:06:23;6.82;66.74
40059;SHT31;25763;49.972;8.568;2024-03-07T09:09:09;6.97;65.90
40059;SHT31;25763;49.972;8.568;2024-03-07T09:11:54;6.71;66.85
40059;SHT31;25763;49.972;8.568;2024-03-07T09:14:40;6.34;66.35
40059;SHT31;25763;49.972;8.568;2024-03-07T09:17:26;6.44;66.87
40059;SHT31;25763;49.972;8.568;2024-03-07T09:20:12;6.71;66.75
40059;SHT31;25763;49.972;8.568;2024-03-07T09:23:00;6.59;67.21
40059;SHT31;25763;49.972;8.568;2024-03-07T09:25:46;6.58;66.96
40059;SHT31;25763;49.972;8.568;2024-03-07T09:28:32;6.72;67.01
40059;SHT31;25763;49.972;8.568;2024-03-07T09:31:17;6.64;66.89
40059;SHT31;25763;49.972;8.568;2024-03-07T09:34:04;6.88;66.85
40059;SHT31;25763;49.972;8.568;2024-03-07T09:36:50;6.89;66.67
40059;SHT31;25763;49.972;8.568;2024-03-07T09:39:42;7.00;66.01
40059;SHT31;25763;49.972;8.568;2024-03-07T09:42:28;7.07;66.02
40059;SHT31;25763;49.972;8.568;2024-03-07T09:45:17;7.38;66.38
40059;SHT31;25763;49.972;8.568;2024-03-07T09:48:03;7.31;65.68
40059;SHT31;25763;49.972;8.568;2024-03-07T09:50:50;7.13;65.16
40059;SHT31;25763;49.972;8.568;2024-03-07T09:53:37;7.35;65.17
40059;SHT31;25763;49.972;8.568;2024-03-07T09:56:24;7.23;65.00
40059;SHT31;25763;49.972;8.568;2024-03-07T09:59:12;7.07;64.55
40059;SHT31;25763;49.972;8.568;2024-03-07T10:02:00;7.53;64.84
40059;SHT31;25763;49.972;8.568;2024-03-07T10:04:51;7.52;63.89
40059;SHT31;25763;49.972;8.568;2024-03-07T10:07:39;7.46;64.41
40059;SHT31;25763;49.972;8.568;2024-03-07T10:10:24;7.39;64.32
40059;SHT31;25763;49.972;8.568;2024-03-07T10:13:11;7.90;64.08
40059;SHT31;25763;49.972;8.568;2024-03-07T10:15:57;7.71;63.54
40059;SHT31;25763;49.972;8.568;2024-03-07T10:18:45;7.52;63.83
40059;SHT31;25763;49.972;8.568;2024-03-07T10:21:33;7.80;63.98
40059;SHT31;25763;49.972;8.568;2024-03-07T10:24:24;7.93;63.65
40059;SHT31;25763;49.972;8.568;2024-03-07T10:27:10;7.91;63.06
40059;SHT31;25763;49.972;8.568;2024-03-07T10:29:55;7.82;63.88
40059;SHT31;25763;49.972;8.568;2024-03-07T10:32:41;7.53;63.40
40059;SHT31;25763;49.972;8.568;2024-03-07T10:35:27;7.83;63.73
40059;SHT31;25763;49.972;8.568;2024-03-07T10:38:13;8.24;62.46
40059;SHT31;25763;49.972;8.568;2024-03-07T10:40:59;8.12;62.91
40059;SHT31;25763;49.972;8.568;2024-03-07T10:43:48;8.45;62.68
40059;SHT31;25763;49.972;8.568;2024-03-07T10:46:35;8.57;61.75
40059;SHT31;25763;49.972;8.568;2024-03-07T10:49:25;8.18;61.86
40059;SHT31;25763;49.972;8.568;2024-03-07T10:52:19;8.43;61.86
40059;SHT31;25763;49.972;8.568;2024-03-07T10:58:14;8.97;60.92
40059;SHT31;25763;49.972;8.568;2024-03-07T11:01:06;8.95;60.89
40059;SHT31;25763;49.972;8.568;2024-03-07T11:03:52;8.68;60.87
40059;SHT31;25763;49.972;8.568;2024-03-07T11:06:38;8.59;61.65
40059;SHT31;25763;49.972;8.568;2024-03-07T11:09:26;8.68;60.95
40059;SHT31;25763;49.972;8.568;2024-03-07T11:12:23;9.24;61.00
40059;SHT31;25763;49.972;8.568;2024-03-07T11:15:11;9.41;60.07
40059;SHT31;25763;49.972;8.568;2024-03-07T11:18:00;9.04;59.80
40059;SHT31;25763;49.972;8.568;2024-03-07T11:20:46;9.57;59.54
40059;SHT31;25763;49.972;8.568;2024-03-07T11:23:32;10.00;58.91
40059;SHT31;25763;49.972;8.568;2024-03-07T11:26:23;9.61;59.75
40059;SHT31;25763;49.972;8.568;2024-03-07T11:29:38;10.08;59.27
40059;SHT31;25763;49.972;8.568;2024-03-07T11:32:29;10.57;58.24
40059;SHT31;25763;49.972;8.568;2024-03-07T11:35:14;10.05;58.86
40059;SHT31;25763;49.972;8.568;2024-03-07T11:38:00;10.16;59.27
40059;SHT31;25763;49.972;8.568;2024-03-07T11:40:46;10.14;59.01
40059;SHT31;25763;49.972;8.568;2024-03-07T11:43:34;9.78;60.51
40059;SHT31;25763;49.972;8.568;2024-03-07T11:46:20;9.79;60.73
40059;SHT31;25763;49.972;8.568;2024-03-07T11:49:06;9.69;60.15
40059;SHT31;25763;49.972;8.568;2024-03-07T11:51:55;9.79;60.36
40059;SHT31;25763;49.972;8.568;2024-03-07T11:54:41;9.09;61.44
40059;SHT31;25763;49.972;8.568;2024-03-07T11:57:31;9.74;60.60
40059;SHT31;25763;49.972;8.568;2024-03-07T12:00:20;10.20;59.56
40059;SHT31;25763;49.972;8.568;2024-03-07T12:03:09;10.20;60.02
40059;SHT31;25763;49.972;8.568;2024-03-07T12:05:59;10.17;60.11
40059;SHT31;25763;49.972;8.568;2024-03-07T12:08:45;10.27;59.06
40059;SHT31;25763;49.972;8.568;2024-03-07T12:11:30;9.91;60.71
40059;SHT31;25763;49.972;8.568;2024-03-07T12:14:16;9.85;60.76
40059;SHT31;25763;49.972;8.568;2024-03-07T12:17:03;9.93;61.18
40059;SHT31;25763;49.972;8.568;2024-03-07T12:19:52;9.88;59.75
40059;SHT31;25763;49.972;8.568;2024-03-07T12:22:37;9.79;60.45
40059;SHT31;25763;49.972;8.568;2024-03-07T12:25:23;10.33;60.19
40059;SHT31;25763;49.972;8.568;2024-03-07T12:28:13;9.77;60.66
40059;SHT31;25763;49.972;8.568;2024-03-07T12:31:05;9.65;60.50
40059;SHT31;25763;49.972;8.568;2024-03-07T12:34:00;9.89;60.89
40059;SHT31;25763;49.972;8.568;2024-03-07T12:36:46;10.51;60.58
40059;SHT31;25763;49.972;8.568;2024-03-07T12:39:33;10.13;58.99
40059;SHT31;25763;49.972;8.568;2024-03-07T12:42:20;10.73;58.43
40059;SHT31;25763;49.972;8.568;2024-03-07T12:45:06;10.35;58.84
40059;SHT31;25763;49.972;8.568;2024-03-07T12:47:52;10.49;58.36
40059;SHT31;25763;49.972;8.568;2024-03-07T12:50:40;10.42;58.94
40059;SHT31;25763;49.972;8.568;2024-03-07T12:53:26;10.55;58.73
40059;SHT31;25763;49.972;8.568;2024-03-07T12:56:11;10.24;58.78
40059;SHT31;25763;49.972;8.568;2024-03-07T12:59:01;10.27;59.37
40059;SHT31;25763;49.972;8.568;2024-03-07T13:01:47;10.14;59.14
40059;SHT31;25763;49.972;8.568;2024-03-07T13:04:33;10.06;59.39
40059;SHT31;25763;49.972;8.568;2024-03-07T13:07:18;10.20;59.77
40059;SHT31;25763;49.972;8.568;2024-03-07T13:10:04;10.02;59.60
40059;SHT31;25763;49.972;8.568;2024-03-07T13:12:51;9.96;59.07
40059;SHT31;25763;49.972;8.568;2024-03-07T13:15:40;9.74;59.27
40059;SHT31;25763;49.972;8.568;2024-03-07T13:18:27;9.74;59.62
40059;SHT31;25763;49.972;8.568;2024-03-07T13:21:13;9.89;59.25
40059;SHT31;25763;49.972;8.568;2024-03-07T13:24:03;10.03;58.95
40059;SHT31;25763;49.972;8.568;2024-03-07T13:26:48;10.41;58.26
40059;SHT31;25763;49.972;8.568;2024-03-07T13:29:34;10.79;57.31
40059;SHT31;25763;49.972;8.568;2024-03-07T13:32:20;10.42;57.50
40059;SHT31;25763;49.972;8.568;2024-03-07T13:35:05;10.33;58.18
40059;SHT31;25763;49.972;8.568;2024-03-07T13:37:57;10.51;57.53
40059;SHT31;25763;49.972;8.568;2024-03-07T13:40:43;10.58;57.11
40059;SHT31;25763;49.972;8.568;2024-03-07T13:43:29;10.62;56.91
40059;SHT31;25763;49.972;8.568;2024-03-07T13:46:15;10.82;56.42
40059;SHT31;25763;49.972;8.568;2024-03-07T13:49:03;10.80;57.30
40059;SHT31;25763;49.972;8.568;2024-03-07T13:51:58;10.77;56.10
40059;SHT31;25763;49.972;8.568;2024-03-07T13:54:55;10.45;56.17
40059;SHT31;25763;49.972;8.568;2024-03-07T13:57:46;10.73;56.54
40059;SHT31;25763;49.972;8.568;2024-03-07T14:00:45;10.68;56.52
40059;SHT31;25763;49.972;8.568;2024-03-07T14:03:59;10.89;55.76
40059;SHT31;25763;49.972;8.568;2024-03-07T14:07:14;10.71;55.69
40059;SHT31;25763;49.972;8.568;2024-03-07T14:10:44;10.54;56.67
40059;SHT31;25763;49.972;8.568;2024-03-07T14:17:29;10.16;57.78
40059;SHT31;25763;49.972;8.568;2024-03-07T14:23:53;10.38;57.64
40059;SHT31;25763;49.972;8.568;2024-03-07T14:33:00;10.12;56.58
40059;SHT31;25763;49.972;8.568;2024-03-07T14:36:09;10.06;56.87
40059;SHT31;25763;49.972;8.568;2024-03-07T14:38:57;10.12;56.99
40059;SHT31;25763;49.972;8.568;2024-03-07T14:41:48;10.18;57.12
40059;SHT31;25763;49.972;8.568;2024-03-07T14:44:38;10.13;56.59
40059;SHT31;25763;49.972;8.568;2024-03-07T14:47:26;10.20;56.86
40059;SHT31;25763;49.972;8.568;2024-03-07T14:50:13;10.12;56.55
40059;SHT31;25763;49.972;8.568;2024-03-07T14:53:02;10.12;56.15
40059;SHT31;25763;49.972;8.568;2024-03-07T14:55:48;10.17;56.14
40059;SHT31;25763;49.972;8.568;2024-03-07T14:58:34;10.21;56.41
40059;SHT31;25763;49.972;8.568;2024-03-07T15:01:20;10.12;56.03
40059;SHT31;25763;49.972;8.568;2024-03-07T15:04:07;9.95;55.97
40059;SHT31;25763;49.972;8.568;2024-03-07T15:06:56;10.03;56.51
40059;SHT31;25763;49.972;8.568;2024-03-07T15:09:42;10.05;56.00
40059;SHT31;25763;49.972;8.568;2024-03-07T15:12:28;10.09;56.13
40059;SHT31;25763;49.972;8.568;2024-03-07T15:15:14;10.13;55.76
40059;SHT31;25763;49.972;8.568;2024-03-07T15:18:00;10.24;56.31
40059;SHT31;25763;49.972;8.568;2024-03-07T15:20:45;10.28;56.11
40059;SHT31;25763;49.972;8.568;2024-03-07T15:23:32;10.30;56.06
40059;SHT31;25763;49.972;8.568;2024-03-07T15:26:17;10.21;55.90
40059;SHT31;25763;49.972;8.568;2024-03-07T15:29:03;10.10;55.62
40059;SHT31;25763;49.972;8.568;2024-03-07T15:31:50;10.08;55.33
40059;SHT31;25763;49.972;8.568;2024-03-07T15:34:36;10.08;55.39
40059;SHT31;25763;49.972;8.568;2024-03-07T15:37:22;10.08;55.83
40059;SHT31;25763;49.972;8.568;2024-03-07T15:40:09;9.88;56.35
40059;SHT31;25763;49.972;8.568;2024-03-07T15:42:57;9.95;56.75
40059;SHT31;25763;49.972;8.568;2024-03-07T15:45:43;9.86;55.52
40059;SHT31;25763;49.972;8.568;2024-03-07T15:48:28;9.88;55.85
40059;SHT31;25763;49.972;8.568;2024-03-07T15:51:14;9.86;56.21
40059;SHT31;25763;49.972;8.568;2024-03-07T15:54:00;9.86;56.68
40059;SHT31;25763;49.972;8.568;2024-03-07T15:56:50;9.91;56.66
40059;SHT31;25763;49.972;8.568;2024-03-07T15:59:35;9.86;57.05
40059;SHT31;25763;49.972;8.568;2024-03-07T16:02:21;9.88;57.65
40059;SHT31;25763;49.972;8.568;2024-03-07T16:05:07;9.79;58.02
40059;SHT31;25763;49.972;8.568;2024-03-07T16:07:55;9.74;58.49
40059;SHT31;25763;49.972;8.568;2024-03-07T16:10:44;9.68;59.01
40059;SHT31;25763;49.972;8.568;2024-03-07T16:13:32;9.52;59.83
40059;SHT31;25763;49.972;8.568;2024-03-07T16:16:18;9.47;60.36
40059;SHT31;25763;49.972;8.568;2024-03-07T16:19:05;9.44;60.87
40059;SHT31;25763;49.972;8.568;2024-03-07T16:21:50;9.40;61.11
40059;SHT31;25763;49.972;8.568;2024-03-07T16:24:36;9.33;61.08
40059;SHT31;25763;49.972;8.568;2024-03-07T16:27:23;9.26;61.28
40059;SHT31;25763;49.972;8.568;2024-03-07T16:30:12;9.20;61.37
40059;SHT31;25763;49.972;8.568;2024-03-07T16:33:01;9.22;61.70
40059;SHT31;25763;49.972;8.568;2024-03-07T16:35:46;9.18;61.36
40059;SHT31;25763;49.972;8.568;2024-03-07T16:38:33;9.16;61.77
40059;SHT31;25763;49.972;8.568;2024-03-07T16:41:19;9.04;61.35
40059;SHT31;25763;49.972;8.568;2024-03-07T16:44:05;9.09;61.70
40059;SHT31;25763;49.972;8.568;2024-03-07T16:46:51;9.11;62.11
40059;SHT31;25763;49.972;8.568;2024-03-07T16:49:39;9.04;61.89
40059;SHT31;25763;49.972;8.568;2024-03-07T16:52:25;8.94;61.31
40059;SHT31;25763;49.972;8.568;2024-03-07T16:55:12;8.95;61.38
40059;SHT31;25763;49.972;8.568;2024-03-07T16:57:57;8.87;61.10
40059;SHT31;25763;49.972;8.568;2024-03-07T17:00:43;8.84;60.98
40059;SHT31;25763;49.972;8.568;2024-03-07T17:03:29;8.81;61.04
40059;SHT31;25763;49.972;8.568;2024-03-07T17:06:15;8.80;61.14
40059;SHT31;25763;49.972;8.568;2024-03-07T17:09:01;8.77;60.58
40059;SHT31;25763;49.972;8.568;2024-03-07T17:11:46;8.77;60.97
40059;SHT31;25763;49.972;8.568;2024-03-07T17:14:34;8.73;60.25
40059;SHT31;25763;49.972;8.568;2024-03-07T17:17:20;8.70;60.49
40059;SHT31;25763;49.972;8.568;2024-03-07T17:20:06;8.67;61.00
40059;SHT31;25763;49.972;8.568;2024-03-07T17:22:52;8.67;60.46
40059;SHT31;25763;49.972;8.568;2024-03-07T17:25:38;8.68;60.36
40059;SHT31;25763;49.972;8.568;2024-03-07T17:28:24;8.68;60.73
40059;SHT31;25763;49.972;8.568;2024-03-07T17:31:11;8.67;60.53
40059;SHT31;25763;49.972;8.568;2024-03-07T17:33:56;8.68;60.67
40059;SHT31;25763;49.972;8.568;2024-03-07T17:36:42;8.64;60.49
40059;SHT31;25763;49.972;8.568;2024-03-07T17:39:29;8.61;60.67
40059;SHT31;25763;49.972;8.568;2024-03-07T17:42:15;8.60;60.23
40059;SHT31;25763;49.972;8.568;2024-03-07T17:45:00;8.56;60.66
40059;SHT31;25763;49.972;8.568;2024-03-07T17:47:47;8.56;60.85
40059;SHT31;25763;49.972;8.568;2024-03-07T17:50:38;8.54;60.48
40059;SHT31;25763;49.972;8.568;2024-03-07T17:53:24;8.50;60.69
40059;SHT31;25763;49.972;8.568;2024-03-07T17:56:11;8.50;60.90
40059;SHT31;25763;49.972;8.568;2024-03-07T17:58:57;8.43;60.77
40059;SHT31;25763;49.972;8.568;2024-03-07T18:01:42;8.43;60.97
40059;SHT31;25763;49.972;8.568;2024-03-07T18:04:28;8.42;60.81
40059;SHT31;25763;49.972;8.568;2024-03-07T18:07:13;8.39;61.36